createdAt,value
2022-08-09T00:00:06.032Z,17.83
2022-08-09T00:04:00.656Z,17.78
2022-08-09T00:06:37.860Z,17.77
2022-08-09T00:09:44.678Z,17.69
2022-08-09T00:12:52.336Z,17.80
2022-08-09T00:15:58.864Z,17.80
2022-08-09T00:19:09.334Z,17.85
2022-08-09T00:22:13.334Z,17.91
2022-08-09T00:25:23.432Z,17.95
2022-08-09T00:28:37.140Z,17.99
2022-08-09T00:31:57.328Z,18.00
2022-08-09T00:35:01.714Z,18.00
2022-08-09T00:38:06.606Z,17.88
2022-08-09T00:41:09.468Z,17.89
2022-08-09T00:44:32.787Z,17.92
2022-08-09T00:47:40.469Z,17.92
2022-08-09T00:50:44.288Z,17.88
2022-08-09T00:53:51.958Z,17.87
2022-08-09T00:56:57.756Z,17.88
2022-08-09T01:00:02.988Z,17.88
2022-08-09T01:03:28.508Z,17.87
2022-08-09T01:06:54.512Z,17.86
2022-08-09T01:10:36.492Z,17.85
2022-08-09T01:13:59.103Z,17.80
2022-08-09T01:17:17.861Z,17.77
2022-08-09T01:20:42.864Z,17.73
2022-08-09T01:24:01.810Z,17.74
2022-08-09T01:27:08.811Z,17.78
2022-08-09T01:30:28.682Z,17.78
2022-08-09T01:33:43.272Z,17.76
2022-08-09T01:36:50.235Z,17.70
2022-08-09T01:39:55.029Z,17.64
2022-08-09T01:43:01.197Z,17.64
2022-08-09T01:46:05.223Z,17.62
2022-08-09T01:49:12.884Z,17.58
2022-08-09T01:52:23.096Z,17.48
2022-08-09T01:55:30.247Z,17.49
2022-08-09T01:58:39.214Z,17.47
2022-08-09T02:01:58.447Z,17.48
2022-08-09T02:05:15.722Z,17.47
2022-08-09T02:08:41.354Z,17.45
2022-08-09T02:11:48.279Z,17.42
2022-08-09T02:14:53.004Z,17.43
2022-08-09T02:18:10.183Z,17.43
2022-08-09T02:21:22.127Z,17.43
2022-08-09T02:24:32.675Z,17.44
2022-08-09T02:27:57.409Z,17.41
2022-08-09T02:31:06.194Z,17.35
2022-08-09T02:34:40.222Z,17.33
2022-08-09T02:37:40.280Z,17.31
2022-08-09T02:40:53.814Z,17.29
2022-08-09T02:44:10.389Z,17.28
2022-08-09T02:47:27.920Z,17.25
2022-08-09T02:50:42.166Z,17.25
2022-08-09T02:53:52.930Z,17.18
2022-08-09T02:57:13.662Z,17.14
2022-08-09T03:00:30.200Z,17.10
2022-08-09T03:04:16.710Z,17.06
2022-08-09T03:07:24.756Z,17.01
2022-08-09T03:10:35.087Z,17.01
2022-08-09T03:13:59.283Z,16.95
2022-08-09T03:17:16.435Z,16.97
2022-08-09T03:20:30.036Z,17.01
2022-08-09T03:23:33.002Z,16.94
2022-08-09T03:26:44.946Z,16.90
2022-08-09T03:29:57.595Z,16.90
2022-08-09T03:33:18.715Z,16.82
2022-08-09T03:36:27.709Z,16.75
2022-08-09T03:39:38.076Z,16.70
2022-08-09T03:42:42.884Z,16.67
2022-08-09T03:46:03.831Z,16.67
2022-08-09T03:49:17.412Z,16.67
2022-08-09T03:52:22.792Z,16.68
2022-08-09T03:55:36.279Z,16.68
2022-08-09T03:58:50.374Z,16.66
2022-08-09T04:01:59.136Z,16.65
2022-08-09T04:05:17.260Z,16.66
2022-08-09T04:08:29.799Z,16.69
2022-08-09T04:12:03.463Z,16.69
2022-08-09T04:15:11.666Z,16.72
2022-08-09T04:18:32.344Z,16.75
2022-08-09T04:21:36.377Z,16.80
2022-08-09T04:24:44.395Z,16.82
2022-08-09T04:27:49.043Z,16.85
2022-08-09T04:30:52.990Z,16.88
2022-08-09T04:33:57.128Z,16.93
2022-08-09T04:37:02.608Z,17.01
2022-08-09T04:40:09.166Z,17.11
2022-08-09T04:43:15.753Z,17.19
2022-08-09T04:46:37.306Z,17.26
2022-08-09T04:49:54.269Z,17.32
2022-08-09T04:52:57.849Z,17.40
2022-08-09T04:56:06.305Z,17.51
2022-08-09T04:59:15.318Z,17.61
2022-08-09T05:02:22.265Z,17.67
2022-08-09T05:05:32.279Z,17.75
2022-08-09T05:08:48.985Z,17.86
2022-08-09T05:11:51.578Z,17.99
2022-08-09T05:14:55.625Z,18.05
2022-08-09T05:18:37.771Z,18.19
2022-08-09T05:21:29.917Z,18.31
2022-08-09T05:24:33.423Z,18.47
2022-08-09T05:27:45.362Z,18.56
2022-08-09T05:30:51.541Z,18.76
2022-08-09T05:33:57.053Z,18.84
2022-08-09T05:37:05.009Z,18.98
2022-08-09T05:40:13.401Z,19.22
2022-08-09T05:43:15.966Z,19.46
2022-08-09T05:46:19.880Z,19.66
2022-08-09T05:50:19.558Z,19.87
2022-08-09T05:52:53.409Z,20.07
2022-08-09T05:55:56.690Z,20.21
2022-08-09T05:58:59.564Z,20.37
2022-08-09T06:02:02.530Z,20.52
2022-08-09T06:05:07.135Z,20.65
2022-08-09T06:08:13.576Z,20.74
2022-08-09T06:11:40.607Z,20.64
2022-08-09T06:14:42.216Z,20.68
2022-08-09T06:17:45.116Z,20.78
2022-08-09T06:20:57.919Z,20.95
2022-08-09T06:24:03.966Z,21.07
2022-08-09T06:27:07.313Z,21.03
2022-08-09T06:30:14.207Z,21.32
2022-08-09T06:33:39.660Z,21.47
2022-08-09T06:36:33.748Z,21.68
2022-08-09T06:39:48.707Z,21.74
2022-08-09T06:42:51.467Z,21.82
2022-08-09T06:46:07.284Z,21.78
2022-08-09T06:49:11.693Z,22.04
2022-08-09T06:52:28.021Z,22.19
2022-08-09T06:55:33.433Z,22.12
2022-08-09T07:00:46.509Z,22.43
2022-08-09T07:02:03.540Z,22.54
2022-08-09T07:05:09.407Z,22.64
2022-08-09T07:08:13.924Z,22.87
2022-08-09T07:11:23.726Z,23.04
2022-08-09T07:14:36.069Z,23.30
2022-08-09T07:17:56.096Z,23.39
2022-08-09T07:20:57.048Z,23.62
2022-08-09T07:24:01.497Z,23.77
2022-08-09T07:27:26.214Z,24.00
2022-08-09T07:30:34.382Z,24.29
2022-08-09T07:33:52.457Z,24.35
2022-08-09T07:36:55.587Z,24.39
2022-08-09T07:40:16.968Z,24.85
2022-08-09T07:43:56.083Z,25.17
2022-08-09T07:47:01.914Z,25.01
2022-08-09T07:50:08.561Z,25.39
2022-08-09T07:53:16.758Z,25.74
2022-08-09T07:56:34.116Z,25.81
2022-08-09T07:59:51.015Z,26.04
2022-08-09T08:02:51.382Z,26.59
2022-08-09T08:05:57.633Z,26.72
2022-08-09T08:09:07.709Z,27.15
2022-08-09T08:12:27.657Z,27.28
2022-08-09T08:15:35.553Z,27.05
2022-08-09T08:18:40.911Z,27.41
2022-08-09T08:21:52.874Z,27.97
2022-08-09T08:24:57.532Z,28.59
2022-08-09T08:28:02.166Z,28.73
2022-08-09T08:31:13.741Z,29.50
2022-08-09T08:34:25.345Z,29.54
2022-08-09T08:37:41.356Z,29.35
2022-08-09T08:40:45.136Z,29.29
2022-08-09T08:43:53.315Z,29.65
2022-08-09T08:47:04.485Z,30.09
2022-08-09T08:50:18.161Z,30.97
2022-08-09T08:53:22.903Z,30.93
2022-08-09T08:56:38.660Z,31.72
2022-08-09T08:59:46.740Z,32.00
2022-08-09T09:02:53.556Z,31.60
2022-08-09T09:06:04.791Z,31.82
2022-08-09T09:09:21.350Z,32.49
2022-08-09T09:12:36.252Z,31.75
2022-08-09T09:15:40.225Z,32.09
2022-08-09T09:22:28.582Z,32.66
2022-08-09T09:26:03.591Z,33.35
2022-08-09T09:29:04.378Z,33.77
2022-08-09T09:32:34.425Z,33.42
2022-08-09T09:36:01.864Z,34.23
2022-08-09T09:39:11.828Z,34.05
2022-08-09T09:42:27.738Z,33.67
2022-08-09T09:45:57.616Z,33.98
2022-08-09T09:49:18.803Z,34.31
2022-08-09T09:52:37.189Z,34.58
2022-08-09T09:56:05.247Z,34.43
2022-08-09T10:02:56.671Z,33.90
2022-08-09T10:06:52.179Z,34.51
2022-08-09T10:10:31.711Z,34.27
2022-08-09T10:13:59.425Z,35.68
2022-08-09T10:17:56.312Z,35.70
2022-08-09T10:21:16.574Z,35.87
2022-08-09T10:24:31.413Z,34.46
2022-08-09T10:27:57.834Z,36.00
2022-08-09T10:34:59.640Z,36.07
2022-08-09T10:38:05.757Z,35.86
2022-08-09T10:41:40.771Z,36.21
2022-08-09T10:44:52.317Z,34.97
2022-08-09T10:52:20.280Z,35.12
2022-08-09T10:59:30.675Z,36.26
2022-08-09T11:03:11.243Z,35.90
2022-08-09T11:06:25.425Z,36.81
2022-08-09T11:09:48.172Z,36.92
2022-08-09T11:13:51.063Z,37.30
2022-08-09T11:16:47.158Z,37.78
2022-08-09T11:20:22.196Z,36.82
2022-08-09T11:23:30.225Z,36.42
2022-08-09T11:26:40.818Z,36.91
2022-08-09T11:30:04.039Z,36.88
2022-08-09T11:33:19.332Z,36.59
2022-08-09T11:36:35.469Z,37.51
2022-08-09T11:40:06.015Z,36.55
2022-08-09T11:43:09.016Z,35.72
2022-08-09T11:46:26.580Z,35.22
2022-08-09T11:50:53.801Z,35.50
2022-08-09T11:54:01.123Z,33.85
2022-08-09T11:57:47.865Z,34.71
2022-08-09T12:01:37.575Z,35.05
2022-08-09T12:04:32.194Z,34.57
2022-08-09T12:07:44.436Z,34.29
2022-08-09T12:10:59.259Z,34.96
2022-08-09T12:14:36.800Z,35.15
2022-08-09T12:17:51.945Z,35.36
2022-08-09T12:21:02.546Z,34.76
2022-08-09T12:24:10.167Z,34.03
2022-08-09T12:31:30.803Z,33.15
2022-08-09T12:34:43.230Z,32.69
2022-08-09T12:37:51.863Z,32.78
2022-08-09T12:41:07.458Z,32.40
2022-08-09T12:44:13.261Z,32.42
2022-08-09T12:47:17.612Z,32.12
2022-08-09T12:50:28.637Z,32.19
2022-08-09T12:53:41.008Z,31.57
2022-08-09T12:56:54.422Z,31.36
2022-08-09T13:00:18.503Z,31.12
2022-08-09T13:03:57.366Z,30.75
2022-08-09T13:07:16.492Z,30.61
2022-08-09T13:10:20.191Z,31.02
2022-08-09T13:14:40.760Z,31.11
2022-08-09T13:17:14.216Z,31.12
2022-08-09T13:20:37.924Z,31.31
2022-08-09T13:24:44.465Z,31.19
2022-08-09T13:27:39.937Z,31.21
2022-08-09T13:42:13.707Z,30.71
2022-08-09T13:45:21.848Z,31.05
2022-08-09T13:49:03.162Z,30.99
2022-08-09T13:52:10.835Z,30.93
2022-08-09T13:55:23.633Z,30.39
2022-08-09T13:58:27.874Z,30.90
2022-08-09T14:02:00.502Z,30.78
2022-08-09T14:05:01.105Z,30.99
2022-08-09T14:08:07.087Z,31.04
2022-08-09T14:11:16.331Z,31.37
2022-08-09T14:14:25.727Z,30.80
2022-08-09T14:21:32.343Z,31.15
2022-08-09T14:24:39.699Z,30.84
2022-08-09T14:28:04.611Z,30.87
2022-08-09T14:31:20.425Z,30.95
2022-08-09T14:34:31.004Z,30.76
2022-08-09T14:38:02.181Z,30.70
2022-08-09T14:41:35.233Z,30.72
2022-08-09T14:44:59.245Z,30.39
2022-08-09T14:48:15.256Z,30.25
2022-08-09T14:51:23.236Z,30.27
2022-08-09T14:54:28.560Z,30.25
2022-08-09T14:57:43.254Z,29.93
2022-08-09T15:00:51.931Z,29.79
2022-08-09T15:03:58.572Z,29.52
2022-08-09T15:07:06.127Z,29.89
2022-08-09T15:10:28.507Z,29.93
2022-08-09T15:13:48.424Z,30.50
2022-08-09T15:16:57.402Z,30.70
2022-08-09T15:20:03.497Z,30.64
2022-08-09T15:24:01.377Z,30.24
2022-08-09T15:26:32.535Z,30.30
2022-08-09T15:30:59.229Z,30.25
2022-08-09T15:33:07.516Z,30.11
2022-08-09T15:36:14.532Z,30.26
2022-08-09T15:39:20.851Z,30.08
2022-08-09T15:42:23.856Z,30.15
2022-08-09T15:45:29.525Z,30.10
2022-08-09T15:48:33.129Z,29.85
2022-08-09T15:52:13.067Z,29.81
2022-08-09T15:55:20.051Z,29.40
2022-08-09T15:58:26.757Z,29.33
2022-08-09T16:01:31.337Z,29.22
2022-08-09T16:04:39.053Z,29.29
2022-08-09T16:07:49.245Z,29.36
2022-08-09T16:10:56.999Z,29.22
2022-08-09T16:14:03.052Z,29.09
2022-08-09T16:17:10.237Z,29.35
2022-08-09T16:20:13.073Z,29.22
2022-08-09T16:23:19.805Z,29.49
2022-08-09T16:26:33.803Z,29.63
2022-08-09T16:29:49.911Z,29.51
2022-08-09T16:33:10.242Z,29.52
2022-08-09T16:36:18.790Z,29.33
2022-08-09T16:39:21.461Z,29.05
2022-08-09T16:42:31.066Z,28.85
2022-08-09T16:45:33.604Z,28.67
2022-08-09T16:48:58.321Z,28.50
2022-08-09T16:51:55.449Z,28.40
2022-08-09T16:54:59.650Z,28.34
2022-08-09T16:58:09.240Z,28.17
2022-08-09T17:01:14.253Z,28.17
2022-08-09T17:04:25.829Z,28.03
2022-08-09T17:08:44.644Z,27.90
2022-08-09T17:10:49.765Z,27.74
2022-08-09T17:14:00.899Z,27.64
2022-08-09T17:17:12.742Z,27.47
2022-08-09T17:20:29.670Z,27.33
2022-08-09T17:24:20.035Z,27.17
2022-08-09T17:27:02.309Z,27.10
2022-08-09T17:30:14.556Z,27.05
2022-08-09T17:33:22.750Z,26.96
2022-08-09T17:36:25.972Z,26.89
2022-08-09T17:39:48.626Z,26.85
2022-08-09T17:42:55.543Z,26.77
2022-08-09T17:46:06.384Z,26.68
2022-08-09T17:49:10.060Z,26.60
2022-08-09T17:52:22.310Z,26.58
2022-08-09T17:55:47.103Z,26.54
2022-08-09T17:58:50.852Z,26.48
2022-08-09T18:02:07.646Z,26.36
2022-08-09T18:05:16.631Z,26.27
2022-08-09T18:08:19.498Z,26.17
2022-08-09T18:11:27.471Z,26.10
2022-08-09T18:14:31.405Z,26.02
2022-08-09T18:18:03.395Z,25.94
2022-08-09T18:21:18.792Z,25.82
2022-08-09T18:24:27.375Z,25.77
2022-08-09T18:28:02.033Z,25.72
2022-08-09T18:30:56.275Z,25.65
2022-08-09T18:33:58.689Z,25.60
2022-08-09T18:37:10.495Z,25.52
2022-08-09T18:40:30.353Z,25.50
2022-08-09T18:43:34.961Z,25.41
2022-08-09T18:46:49.152Z,25.72
2022-08-09T18:50:06.184Z,25.80
2022-08-09T18:53:13.408Z,25.78
2022-08-09T18:56:16.540Z,25.70
2022-08-09T18:59:20.075Z,25.66
2022-08-09T19:02:24.064Z,25.46
2022-08-09T19:06:02.093Z,25.35
2022-08-09T19:09:04.315Z,25.26
2022-08-09T19:12:09.214Z,25.21
2022-08-09T19:15:15.504Z,25.04
2022-08-09T19:18:33.466Z,24.89
2022-08-09T19:21:51.687Z,24.76
2022-08-09T19:25:41.798Z,24.60
2022-08-09T19:28:34.947Z,24.62
2022-08-09T19:31:44.328Z,24.55
2022-08-09T19:34:49.770Z,24.36
2022-08-09T19:37:57.885Z,24.27
2022-08-09T19:41:02.237Z,24.19
2022-08-09T19:44:06.379Z,24.25
2022-08-09T19:47:09.367Z,24.17
2022-08-09T19:53:53.202Z,24.15
2022-08-09T19:57:27.516Z,24.01
2022-08-09T20:00:54.080Z,23.96
2022-08-09T20:04:40.461Z,23.85
2022-08-09T20:08:07.663Z,23.71
2022-08-09T20:11:53.276Z,23.65
2022-08-09T20:16:35.234Z,23.54
2022-08-09T20:19:42.950Z,23.50
2022-08-09T20:22:24.334Z,23.47
2022-08-09T20:26:00.672Z,23.49
2022-08-09T20:29:37.493Z,23.45
2022-08-09T20:33:18.392Z,23.47
2022-08-09T20:36:44.844Z,23.44
2022-08-09T20:40:26.795Z,23.45
2022-08-09T20:43:59.706Z,23.40
2022-08-09T20:47:47.867Z,23.46
2022-08-09T20:51:02.957Z,23.47
2022-08-09T20:54:39.000Z,23.36
2022-08-09T20:58:32.292Z,23.42
2022-08-09T21:02:06.441Z,23.38
2022-08-09T21:05:54.124Z,23.29
2022-08-09T21:09:11.861Z,23.21
2022-08-09T21:16:30.348Z,23.13
2022-08-09T21:20:19.651Z,23.12
2022-08-09T21:23:55.577Z,23.02
2022-08-09T21:27:51.110Z,23.01
2022-08-09T21:31:23.145Z,22.99
2022-08-09T21:35:07.049Z,22.99
2022-08-09T21:38:34.374Z,22.92
2022-08-09T21:42:14.130Z,22.87
2022-08-09T21:45:49.129Z,22.77
2022-08-09T21:49:18.584Z,22.75
2022-08-09T21:53:04.224Z,22.68
2022-08-09T21:56:15.095Z,22.62
2022-08-09T21:59:45.331Z,22.51
2022-08-09T22:03:19.597Z,22.42
2022-08-09T22:06:55.360Z,22.32
2022-08-09T22:10:30.161Z,22.22
2022-08-09T22:14:06.276Z,22.14
2022-08-09T22:17:51.405Z,22.09
2022-08-09T22:21:45.395Z,21.99
2022-08-09T22:26:05.500Z,21.89
2022-08-09T22:28:55.773Z,21.84
2022-08-09T22:32:31.635Z,21.79
2022-08-09T22:36:06.629Z,21.68
2022-08-09T22:39:56.305Z,21.55
2022-08-09T22:43:01.265Z,21.52
2022-08-09T22:48:10.516Z,21.53
2022-08-09T22:50:26.381Z,21.51
2022-08-09T22:54:03.528Z,21.48
2022-08-09T22:57:31.621Z,21.55
2022-08-09T23:01:11.837Z,21.49
2022-08-09T23:04:40.613Z,21.40
2022-08-09T23:08:30.119Z,21.33
2022-08-09T23:12:02.877Z,21.20
2022-08-09T23:16:02.652Z,21.08
2022-08-09T23:19:15.128Z,20.97
2022-08-09T23:22:43.399Z,20.89
2022-08-09T23:26:09.357Z,20.75
2022-08-09T23:30:00.621Z,20.66
2022-08-09T23:33:28.646Z,20.54
2022-08-09T23:37:07.945Z,20.45
2022-08-09T23:40:36.692Z,20.36
2022-08-09T23:44:16.278Z,20.33
2022-08-09T23:47:57.071Z,20.23
2022-08-09T23:51:28.492Z,20.09
2022-08-09T23:54:57.488Z,20.04
2022-08-09T23:58:29.751Z,19.97
